createdAt,value
2022-09-29T00:00:54.657Z,100.00
2022-09-29T00:03:22.549Z,100.00
2022-09-29T00:05:55.132Z,100.00
2022-09-29T00:08:25.639Z,100.00
2022-09-29T00:10:52.725Z,100.00
2022-09-29T00:13:20.262Z,100.00
2022-09-29T00:15:57.440Z,100.00
2022-09-29T00:18:24.945Z,100.00
2022-09-29T00:21:10.520Z,100.00
2022-09-29T00:23:38.176Z,100.00
2022-09-29T00:26:24.671Z,100.00
2022-09-29T00:28:57.958Z,100.00
2022-09-29T00:31:30.438Z,100.00
2022-09-29T00:33:58.529Z,100.00
2022-09-29T00:36:29.977Z,100.00
2022-09-29T00:38:58.218Z,100.00
2022-09-29T00:41:31.808Z,100.00
2022-09-29T00:44:04.705Z,100.00
2022-09-29T00:46:48.568Z,100.00
2022-09-29T00:49:26.875Z,100.00
2022-09-29T00:51:58.935Z,100.00
2022-09-29T00:54:29.521Z,100.00
2022-09-29T00:56:58.954Z,100.00
2022-09-29T00:59:37.445Z,100.00
2022-09-29T01:02:06.213Z,100.00
2022-09-29T01:04:33.273Z,100.00
2022-09-29T01:07:00.309Z,100.00
2022-09-29T01:09:37.520Z,100.00
2022-09-29T01:12:05.648Z,100.00
2022-09-29T01:14:35.384Z,100.00
2022-09-29T01:17:03.007Z,100.00
2022-09-29T01:20:05.076Z,100.00
2022-09-29T01:22:53.466Z,100.00
2022-09-29T01:26:00.514Z,100.00
2022-09-29T01:29:07.878Z,100.00
2022-09-29T01:32:15.100Z,100.00
2022-09-29T01:35:43.047Z,100.00
2022-09-29T01:38:29.718Z,100.00
2022-09-29T01:41:12.432Z,100.00
2022-09-29T01:43:55.518Z,100.00
2022-09-29T01:46:40.169Z,100.00
2022-09-29T01:49:09.865Z,100.00
2022-09-29T01:51:46.186Z,100.00
2022-09-29T01:54:19.867Z,100.00
2022-09-29T01:56:54.865Z,100.00
2022-09-29T01:59:54.319Z,100.00
2022-09-29T02:02:33.752Z,100.00
2022-09-29T02:05:05.735Z,100.00
2022-09-29T02:07:39.095Z,100.00
2022-09-29T02:10:14.890Z,100.00
2022-09-29T02:12:44.940Z,100.00
2022-09-29T02:15:19.926Z,100.00
2022-09-29T02:17:51.993Z,100.00
2022-09-29T02:20:19.489Z,100.00
2022-09-29T02:22:46.639Z,100.00
2022-09-29T02:25:18.037Z,100.00
2022-09-29T02:27:48.664Z,100.00
2022-09-29T02:30:15.766Z,100.00
2022-09-29T02:32:43.156Z,100.00
2022-09-29T02:35:12.759Z,100.00
2022-09-29T02:37:54.833Z,100.00
2022-09-29T02:40:42.758Z,100.00
2022-09-29T02:43:41.820Z,100.00
2022-09-29T02:46:30.454Z,100.00
2022-09-29T02:49:38.568Z,100.00
2022-09-29T02:52:18.238Z,100.00
2022-09-29T02:55:19.363Z,100.00
2022-09-29T02:58:16.181Z,100.00
2022-09-29T03:00:44.797Z,100.00
2022-09-29T03:03:11.869Z,100.00
2022-09-29T03:05:39.104Z,100.00
2022-09-29T03:08:05.994Z,100.00
2022-09-29T03:10:32.951Z,100.00
2022-09-29T03:12:59.861Z,100.00
2022-09-29T03:15:27.092Z,100.00
2022-09-29T03:17:57.286Z,100.00
2022-09-29T03:20:24.557Z,100.00
2022-09-29T03:22:52.094Z,100.00
2022-09-29T03:25:19.167Z,100.00
2022-09-29T03:27:46.498Z,100.00
2022-09-29T03:30:13.799Z,100.00
2022-09-29T03:32:40.684Z,100.00
2022-09-29T03:35:08.652Z,100.00
2022-09-29T03:37:36.011Z,100.00
2022-09-29T03:40:05.787Z,100.00
2022-09-29T03:42:32.828Z,100.00
2022-09-29T03:44:59.809Z,100.00
2022-09-29T03:47:26.913Z,100.00
2022-09-29T03:49:53.889Z,100.00
2022-09-29T03:52:20.871Z,100.00
2022-09-29T03:54:47.909Z,100.00
2022-09-29T03:57:14.999Z,100.00
2022-09-29T03:59:45.373Z,100.00
2022-09-29T04:02:13.197Z,100.00
2022-09-29T04:04:40.231Z,100.00
2022-09-29T04:07:07.157Z,100.00
2022-09-29T04:09:34.063Z,100.00
2022-09-29T04:12:01.217Z,100.00
2022-09-29T04:14:28.132Z,100.00
2022-09-29T04:16:55.042Z,100.00
2022-09-29T04:19:22.185Z,100.00
2022-09-29T04:21:49.170Z,100.00
2022-09-29T04:24:16.173Z,100.00
2022-09-29T04:26:43.291Z,100.00
2022-09-29T04:29:10.902Z,100.00
2022-09-29T04:31:37.925Z,100.00
2022-09-29T04:34:04.995Z,100.00
2022-09-29T04:36:34.810Z,100.00
2022-09-29T04:39:01.776Z,100.00
2022-09-29T04:41:28.921Z,100.00
2022-09-29T04:43:55.824Z,100.00
2022-09-29T04:46:23.304Z,100.00
2022-09-29T04:48:50.286Z,100.00
2022-09-29T04:51:17.182Z,100.00
2022-09-29T04:53:44.156Z,100.00
2022-09-29T04:56:11.530Z,100.00
2022-09-29T04:58:38.560Z,100.00
2022-09-29T05:01:12.909Z,100.00
2022-09-29T05:03:40.710Z,100.00
2022-09-29T05:06:09.826Z,100.00
2022-09-29T05:08:37.090Z,100.00
2022-09-29T05:11:06.900Z,100.00
2022-09-29T05:13:34.686Z,100.00
2022-09-29T05:16:01.964Z,100.00
2022-09-29T05:18:29.933Z,100.00
2022-09-29T05:21:16.141Z,100.00
2022-09-29T05:23:44.362Z,100.00
2022-09-29T05:26:13.378Z,100.00
2022-09-29T05:28:46.434Z,100.00
2022-09-29T05:31:14.643Z,100.00
2022-09-29T05:33:41.823Z,100.00
2022-09-29T05:36:11.590Z,100.00
2022-09-29T05:38:39.183Z,100.00
2022-09-29T05:41:10.964Z,100.00
2022-09-29T05:43:39.372Z,100.00
2022-09-29T05:46:09.121Z,100.00
2022-09-29T05:48:36.564Z,100.00
2022-09-29T05:51:22.444Z,100.00
2022-09-29T05:53:50.749Z,100.00
2022-09-29T05:56:23.550Z,100.00
2022-09-29T05:58:50.910Z,100.00
2022-09-29T06:01:22.100Z,100.00
2022-09-29T06:03:51.451Z,100.00
2022-09-29T06:06:27.622Z,100.00
2022-09-29T06:08:57.604Z,100.00
2022-09-29T06:11:28.136Z,100.00
2022-09-29T06:13:55.556Z,100.00
2022-09-29T06:16:26.173Z,100.00
2022-09-29T06:18:53.567Z,100.00
2022-09-29T06:21:25.714Z,100.00
2022-09-29T06:23:55.274Z,100.00
2022-09-29T06:26:24.411Z,100.00
2022-09-29T06:28:52.980Z,100.00
2022-09-29T06:31:24.325Z,100.00
2022-09-29T06:33:51.785Z,100.00
2022-09-29T06:36:41.081Z,100.00
2022-09-29T06:39:11.051Z,100.00
2022-09-29T06:41:38.158Z,100.00
2022-09-29T06:44:07.614Z,100.00
2022-09-29T06:46:35.475Z,100.00
2022-09-29T06:49:02.585Z,100.00
2022-09-29T06:51:41.665Z,100.00
2022-09-29T06:54:18.545Z,100.00
2022-09-29T06:56:49.921Z,100.00
2022-09-29T06:59:17.643Z,100.00
2022-09-29T07:01:50.990Z,100.00
2022-09-29T07:04:21.246Z,100.00
2022-09-29T07:06:49.320Z,100.00
2022-09-29T07:09:16.612Z,100.00
2022-09-29T07:11:49.056Z,100.00
2022-09-29T07:14:17.975Z,100.00
2022-09-29T07:16:47.231Z,100.00
2022-09-29T07:19:14.760Z,100.00
2022-09-29T07:21:41.709Z,100.00
2022-09-29T07:24:09.469Z,100.00
2022-09-29T07:26:37.420Z,100.00
2022-09-29T07:29:04.577Z,100.00
2022-09-29T07:31:40.294Z,100.00
2022-09-29T07:34:12.386Z,100.00
2022-09-29T07:36:39.401Z,100.00
2022-09-29T07:39:06.365Z,100.00
2022-09-29T07:41:33.498Z,100.00
2022-09-29T07:44:00.683Z,100.00
2022-09-29T07:46:27.803Z,100.00
2022-09-29T07:48:54.721Z,100.00
2022-09-29T07:51:21.715Z,100.00
2022-09-29T07:53:48.881Z,100.00
2022-09-29T07:56:19.230Z,100.00
2022-09-29T07:58:49.837Z,100.00
2022-09-29T08:01:18.980Z,100.00
2022-09-29T08:03:54.584Z,100.00
2022-09-29T08:06:26.644Z,100.00
2022-09-29T08:09:03.544Z,100.00
2022-09-29T08:11:33.789Z,100.00
2022-09-29T08:14:01.407Z,100.00
2022-09-29T08:16:31.372Z,100.00
2022-09-29T08:19:00.744Z,100.00
2022-09-29T08:21:29.856Z,100.00
2022-09-29T08:23:57.034Z,100.00
2022-09-29T08:26:38.581Z,100.00
2022-09-29T08:29:08.826Z,100.00
2022-09-29T08:31:37.822Z,100.00
2022-09-29T08:34:05.123Z,100.00
2022-09-29T08:36:32.304Z,100.00
2022-09-29T08:39:00.087Z,100.00
2022-09-29T08:42:00.724Z,100.00
2022-09-29T08:45:08.763Z,100.00
2022-09-29T08:47:50.946Z,100.00
2022-09-29T08:50:35.171Z,100.00
2022-09-29T08:53:22.204Z,100.00
2022-09-29T08:56:07.189Z,100.00
2022-09-29T08:58:34.618Z,100.00
2022-09-29T09:01:38.975Z,100.00
2022-09-29T09:04:51.948Z,100.00
2022-09-29T09:07:39.946Z,100.00
2022-09-29T09:10:47.241Z,100.00
2022-09-29T09:13:41.625Z,100.00
2022-09-29T09:16:37.765Z,100.00
2022-09-29T09:19:25.749Z,98.79
2022-09-29T09:22:24.515Z,99.04
2022-09-29T09:25:22.166Z,98.87
2022-09-29T09:28:02.733Z,99.48
2022-09-29T09:30:39.844Z,98.54
2022-09-29T09:33:31.151Z,95.31
2022-09-29T09:36:10.082Z,94.19
2022-09-29T09:39:33.048Z,92.93
2022-09-29T09:42:07.518Z,90.79
2022-09-29T09:44:41.276Z,91.04
2022-09-29T09:47:34.415Z,89.95
2022-09-29T09:50:13.941Z,90.20
2022-09-29T09:53:18.461Z,90.63
2022-09-29T09:55:58.174Z,92.31
2022-09-29T09:58:50.830Z,90.32
2022-09-29T10:01:17.998Z,89.24
2022-09-29T10:03:45.161Z,88.54
2022-09-29T10:06:12.296Z,86.67
2022-09-29T10:08:42.213Z,85.71
2022-09-29T10:11:28.545Z,86.11
2022-09-29T10:14:29.074Z,86.90
2022-09-29T10:17:12.385Z,86.59
2022-09-29T10:20:06.490Z,84.67
2022-09-29T10:22:34.733Z,84.08
2022-09-29T10:25:12.523Z,84.40
2022-09-29T10:27:57.394Z,81.00
2022-09-29T10:30:34.463Z,81.56
2022-09-29T10:33:04.460Z,82.43
2022-09-29T10:35:39.828Z,82.48
2022-09-29T10:38:17.142Z,83.98
2022-09-29T10:41:05.786Z,82.93
2022-09-29T10:43:40.240Z,83.54
2022-09-29T10:46:36.854Z,84.16
2022-09-29T10:49:28.056Z,83.12
2022-09-29T10:52:07.010Z,83.55
2022-09-29T10:54:38.018Z,84.02
2022-09-29T10:57:15.906Z,82.72
2022-09-29T10:59:51.138Z,79.25
2022-09-29T11:02:28.275Z,77.75
2022-09-29T11:05:00.479Z,78.40
2022-09-29T11:07:28.382Z,76.65
2022-09-29T11:09:55.658Z,77.75
2022-09-29T11:12:39.503Z,77.67
2022-09-29T11:15:28.487Z,78.06
2022-09-29T11:17:56.694Z,76.36
2022-09-29T11:20:31.280Z,76.66
2022-09-29T11:23:13.371Z,77.51
2022-09-29T11:26:07.445Z,76.71
2022-09-29T11:29:16.188Z,75.99
2022-09-29T11:32:07.181Z,77.12
2022-09-29T11:35:33.816Z,77.52
2022-09-29T11:38:36.530Z,74.55
2022-09-29T11:41:25.533Z,74.33
2022-09-29T11:43:56.913Z,73.86
2022-09-29T11:46:45.988Z,72.82
2022-09-29T11:49:27.449Z,73.69
2022-09-29T11:52:24.736Z,71.97
2022-09-29T11:55:18.989Z,66.15
2022-09-29T11:58:23.556Z,64.88
2022-09-29T12:01:29.190Z,66.16
2022-09-29T12:05:07.199Z,65.07
2022-09-29T12:08:18.087Z,65.72
2022-09-29T12:11:37.251Z,66.96
2022-09-29T12:14:12.888Z,65.88
2022-09-29T12:16:54.359Z,66.29
2022-09-29T12:19:29.548Z,63.51
2022-09-29T12:22:01.259Z,62.67
2022-09-29T12:24:51.581Z,61.54
2022-09-29T12:27:23.510Z,61.81
2022-09-29T12:30:05.409Z,61.60
2022-09-29T12:32:37.555Z,59.56
2022-09-29T12:35:19.341Z,58.77
2022-09-29T12:38:16.079Z,56.47
2022-09-29T12:41:21.592Z,56.57
2022-09-29T12:43:53.813Z,59.01
2022-09-29T12:46:35.812Z,59.07
2022-09-29T12:49:27.831Z,57.92
2022-09-29T12:51:57.102Z,54.91
2022-09-29T12:54:33.603Z,56.05
2022-09-29T12:57:11.340Z,58.01
2022-09-29T12:59:55.815Z,60.00
2022-09-29T13:03:19.125Z,60.14
2022-09-29T13:06:10.382Z,60.26
2022-09-29T13:09:05.349Z,59.67
2022-09-29T13:12:08.756Z,60.13
2022-09-29T13:15:35.000Z,60.56
2022-09-29T13:18:32.102Z,59.51
2022-09-29T13:21:16.070Z,59.59
2022-09-29T13:24:20.200Z,60.23
2022-09-29T13:26:52.722Z,59.62
2022-09-29T13:29:24.209Z,60.00
2022-09-29T13:31:56.377Z,61.01
2022-09-29T13:34:29.611Z,61.76
2022-09-29T13:37:17.944Z,62.62
2022-09-29T13:40:02.557Z,62.66
2022-09-29T13:42:48.944Z,62.24
2022-09-29T13:45:29.325Z,61.89
2022-09-29T13:48:04.448Z,62.93
2022-09-29T13:50:51.260Z,63.78
2022-09-29T13:53:26.939Z,64.16
2022-09-29T13:55:54.906Z,64.90
2022-09-29T13:58:45.926Z,65.14
2022-09-29T14:01:29.700Z,64.67
2022-09-29T14:03:56.769Z,63.73
2022-09-29T14:06:41.468Z,64.67
2022-09-29T14:09:17.429Z,65.49
2022-09-29T14:11:52.777Z,65.43
2022-09-29T14:14:31.725Z,66.46
2022-09-29T14:17:04.541Z,67.11
2022-09-29T14:19:51.321Z,67.11
2022-09-29T14:22:30.516Z,67.53
2022-09-29T14:25:12.023Z,67.84
2022-09-29T14:27:58.766Z,67.47
2022-09-29T14:30:32.439Z,67.43
2022-09-29T14:33:23.320Z,66.84
2022-09-29T14:35:59.452Z,64.41
2022-09-29T14:39:02.747Z,64.69
2022-09-29T14:41:45.171Z,63.97
2022-09-29T14:44:49.573Z,62.34
2022-09-29T14:48:24.210Z,61.40
2022-09-29T14:51:32.489Z,60.43
2022-09-29T14:54:07.583Z,61.51
2022-09-29T14:56:56.337Z,61.18
2022-09-29T14:59:44.500Z,63.05
2022-09-29T15:02:30.331Z,64.30
2022-09-29T15:04:58.241Z,65.06
2022-09-29T15:07:28.132Z,65.61
2022-09-29T15:09:58.655Z,65.54
2022-09-29T15:12:31.616Z,65.06
2022-09-29T15:15:01.493Z,61.17
2022-09-29T15:18:08.775Z,59.77
2022-09-29T15:20:52.170Z,60.25
2022-09-29T15:23:43.160Z,60.52
2022-09-29T15:26:18.539Z,59.31
2022-09-29T15:28:45.983Z,60.35
2022-09-29T15:31:28.956Z,60.79
2022-09-29T15:33:56.190Z,61.50
2022-09-29T15:36:34.053Z,62.25
2022-09-29T15:39:11.538Z,62.59
2022-09-29T15:41:40.309Z,62.45
2022-09-29T15:44:20.827Z,62.96
2022-09-29T15:46:51.521Z,61.97
2022-09-29T15:49:26.486Z,62.48
2022-09-29T15:52:07.431Z,62.96
2022-09-29T15:54:45.468Z,63.22
2022-09-29T15:57:43.254Z,63.88
2022-09-29T16:00:22.415Z,63.84
2022-09-29T16:03:31.701Z,64.74
2022-09-29T16:06:05.715Z,65.43
2022-09-29T16:08:40.268Z,65.84
2022-09-29T16:11:25.846Z,66.23
2022-09-29T16:14:22.129Z,66.97
2022-09-29T16:16:52.309Z,66.82
2022-09-29T16:19:38.989Z,67.05
2022-09-29T16:22:07.596Z,68.43
2022-09-29T16:24:37.644Z,69.74
2022-09-29T16:27:05.061Z,71.34
2022-09-29T16:29:36.327Z,71.89
2022-09-29T16:32:38.382Z,72.68
2022-09-29T16:35:43.131Z,73.74
2022-09-29T16:38:40.185Z,74.27
2022-09-29T16:41:28.010Z,74.82
2022-09-29T16:44:16.218Z,74.85
2022-09-29T16:47:14.024Z,75.34
2022-09-29T16:50:03.280Z,75.92
2022-09-29T16:52:48.282Z,76.37
2022-09-29T16:55:31.067Z,76.49
2022-09-29T16:58:05.346Z,77.34
2022-09-29T17:00:32.831Z,78.41
2022-09-29T17:03:03.134Z,78.76
2022-09-29T17:05:31.644Z,79.56
2022-09-29T17:08:16.607Z,79.71
2022-09-29T17:10:43.603Z,80.00
2022-09-29T17:13:15.830Z,80.20
2022-09-29T17:15:46.987Z,80.97
2022-09-29T17:18:16.582Z,80.96
2022-09-29T17:20:44.178Z,81.14
2022-09-29T17:23:11.679Z,81.72
2022-09-29T17:25:41.581Z,82.22
2022-09-29T17:28:24.511Z,82.23
2022-09-29T17:30:52.677Z,82.67
2022-09-29T17:33:19.980Z,83.26
2022-09-29T17:35:55.101Z,83.75
2022-09-29T17:38:23.699Z,84.75
2022-09-29T17:41:04.127Z,85.34
2022-09-29T17:43:33.167Z,85.56
2022-09-29T17:46:01.092Z,86.44
2022-09-29T17:48:30.374Z,86.94
2022-09-29T17:50:59.134Z,87.02
2022-09-29T17:53:27.346Z,87.38
2022-09-29T17:55:57.303Z,87.69
2022-09-29T17:58:25.106Z,88.50
2022-09-29T18:00:54.408Z,88.64
2022-09-29T18:03:22.458Z,89.04
2022-09-29T18:05:56.351Z,89.90
2022-09-29T18:08:25.968Z,90.71
2022-09-29T18:11:02.141Z,90.48
2022-09-29T18:13:31.948Z,91.14
2022-09-29T18:16:00.700Z,91.41
2022-09-29T18:18:28.213Z,91.93
2022-09-29T18:20:55.256Z,92.49
2022-09-29T18:23:24.038Z,92.54
2022-09-29T18:25:52.239Z,93.56
2022-09-29T18:28:20.070Z,97.09
2022-09-29T18:30:52.072Z,95.99
2022-09-29T18:33:20.581Z,93.64
2022-09-29T18:35:53.572Z,93.35
2022-09-29T18:38:21.037Z,92.80
2022-09-29T18:40:48.714Z,92.33
2022-09-29T18:43:15.660Z,92.31
2022-09-29T18:45:43.718Z,92.62
2022-09-29T18:48:15.692Z,93.17
2022-09-29T18:50:51.524Z,93.84
2022-09-29T18:53:21.406Z,94.75
2022-09-29T18:55:52.334Z,95.33
2022-09-29T18:58:21.537Z,95.53
2022-09-29T19:00:53.786Z,95.20
2022-09-29T19:03:26.259Z,96.15
2022-09-29T19:05:54.620Z,96.69
2022-09-29T19:08:22.170Z,96.74
2022-09-29T19:10:55.830Z,96.54
2022-09-29T19:13:31.311Z,96.66
2022-09-29T19:15:59.441Z,96.69
2022-09-29T19:18:27.170Z,97.00
2022-09-29T19:20:59.647Z,97.15
2022-09-29T19:23:27.645Z,98.68
2022-09-29T19:25:58.402Z,99.21
2022-09-29T19:28:27.231Z,99.88
2022-09-29T19:30:55.882Z,100.00
2022-09-29T19:33:25.351Z,100.00
2022-09-29T19:35:54.776Z,100.00
2022-09-29T19:38:22.975Z,100.00
2022-09-29T19:40:51.589Z,100.00
2022-09-29T19:43:21.327Z,100.00
2022-09-29T19:45:49.447Z,100.00
2022-09-29T19:48:22.946Z,100.00
2022-09-29T19:51:16.815Z,100.00
2022-09-29T19:53:47.233Z,100.00
2022-09-29T19:56:18.250Z,100.00
2022-09-29T19:58:45.207Z,100.00
2022-09-29T20:01:12.883Z,100.00
2022-09-29T20:03:40.262Z,100.00
2022-09-29T20:06:07.690Z,100.00
2022-09-29T20:08:34.873Z,100.00
2022-09-29T20:11:07.984Z,100.00
2022-09-29T20:13:34.954Z,100.00
2022-09-29T20:16:02.451Z,100.00
2022-09-29T20:18:29.494Z,100.00
2022-09-29T20:20:56.494Z,100.00
2022-09-29T20:23:24.198Z,100.00
2022-09-29T20:26:00.263Z,100.00
2022-09-29T20:28:27.306Z,100.00
2022-09-29T20:31:02.513Z,100.00
2022-09-29T20:33:29.550Z,100.00
2022-09-29T20:35:56.422Z,100.00
2022-09-29T20:38:23.368Z,100.00
2022-09-29T20:40:50.265Z,100.00
2022-09-29T20:43:17.292Z,100.00
2022-09-29T20:45:44.218Z,100.00
2022-09-29T20:48:11.118Z,100.00
2022-09-29T20:50:38.354Z,100.00
2022-09-29T20:53:05.300Z,100.00
2022-09-29T20:55:35.451Z,100.00
2022-09-29T20:58:03.982Z,100.00
2022-09-29T21:00:30.869Z,100.00
2022-09-29T21:02:58.173Z,100.00
2022-09-29T21:05:25.215Z,100.00
2022-09-29T21:07:52.249Z,100.00
2022-09-29T21:10:19.149Z,100.00
2022-09-29T21:12:46.539Z,100.00
2022-09-29T21:15:13.462Z,100.00
2022-09-29T21:17:40.355Z,100.00
2022-09-29T21:20:08.030Z,100.00
2022-09-29T21:22:35.405Z,100.00
2022-09-29T21:25:02.289Z,100.00
2022-09-29T21:27:29.444Z,100.00
2022-09-29T21:29:56.335Z,100.00
2022-09-29T21:32:23.338Z,100.00
2022-09-29T21:34:50.276Z,100.00
2022-09-29T21:37:17.223Z,100.00
2022-09-29T21:39:44.146Z,100.00
2022-09-29T21:42:11.189Z,100.00
2022-09-29T21:44:39.009Z,100.00
2022-09-29T21:47:06.632Z,100.00
2022-09-29T21:49:33.606Z,100.00
2022-09-29T21:52:02.135Z,100.00
2022-09-29T21:54:30.269Z,100.00
2022-09-29T21:56:57.240Z,100.00
2022-09-29T21:59:24.768Z,100.00
2022-09-29T22:01:52.743Z,100.00
2022-09-29T22:04:20.783Z,100.00
2022-09-29T22:06:48.278Z,100.00
2022-09-29T22:09:19.444Z,100.00
2022-09-29T22:11:48.706Z,100.00
2022-09-29T22:14:16.670Z,100.00
2022-09-29T22:16:44.252Z,100.00
2022-09-29T22:19:22.880Z,100.00
2022-09-29T22:21:51.646Z,100.00
2022-09-29T22:24:18.561Z,100.00
2022-09-29T22:26:45.505Z,100.00
2022-09-29T22:29:13.292Z,100.00
2022-09-29T22:31:40.817Z,100.00
2022-09-29T22:34:08.612Z,100.00
2022-09-29T22:36:35.822Z,100.00
2022-09-29T22:39:06.293Z,100.00
2022-09-29T22:41:36.390Z,100.00
2022-09-29T22:44:03.490Z,100.00
2022-09-29T22:46:31.832Z,100.00
2022-09-29T22:48:59.103Z,100.00
2022-09-29T22:51:26.378Z,100.00
2022-09-29T22:53:54.368Z,100.00
2022-09-29T22:56:33.340Z,100.00
2022-09-29T22:59:03.095Z,100.00
2022-09-29T23:01:30.556Z,100.00
2022-09-29T23:03:57.676Z,100.00
2022-09-29T23:06:25.445Z,100.00
2022-09-29T23:08:55.332Z,100.00
2022-09-29T23:11:23.362Z,100.00
2022-09-29T23:13:50.555Z,100.00
2022-09-29T23:16:17.709Z,100.00
2022-09-29T23:18:46.109Z,100.00
2022-09-29T23:21:19.380Z,100.00
2022-09-29T23:24:01.159Z,100.00
2022-09-29T23:26:30.074Z,100.00
2022-09-29T23:28:57.569Z,100.00
2022-09-29T23:31:25.005Z,100.00
2022-09-29T23:33:57.829Z,100.00
2022-09-29T23:36:28.435Z,100.00
2022-09-29T23:39:10.730Z,100.00
2022-09-29T23:41:46.609Z,100.00
2022-09-29T23:44:20.876Z,100.00
2022-09-29T23:46:48.744Z,100.00
2022-09-29T23:49:19.558Z,100.00
2022-09-29T23:51:50.180Z,100.00
2022-09-29T23:54:20.261Z,100.00
2022-09-29T23:56:49.138Z,100.00
2022-09-29T23:59:17.129Z,100.00
